createdAt,value
2022-10-24T00:00:16.719Z,10.70
2022-10-24T00:02:46.232Z,10.20
2022-10-24T00:05:15.590Z,11.00
2022-10-24T00:07:45.081Z,10.27
2022-10-24T00:10:15.262Z,9.97
2022-10-24T00:12:45.092Z,8.47
2022-10-24T00:15:16.288Z,10.63
2022-10-24T00:17:45.485Z,10.53
2022-10-24T00:20:14.949Z,10.23
2022-10-24T00:22:44.925Z,8.50
2022-10-24T00:25:14.582Z,9.97
2022-10-24T00:27:43.719Z,10.23
2022-10-24T00:30:17.623Z,9.57
2022-10-24T00:32:47.226Z,10.20
2022-10-24T00:35:16.896Z,9.17
2022-10-24T00:37:46.940Z,8.60
2022-10-24T00:40:17.987Z,9.17
2022-10-24T00:42:47.514Z,9.30
2022-10-24T00:48:27.806Z,9.27
2022-10-24T00:50:59.175Z,9.00
2022-10-24T00:53:29.138Z,13.07
2022-10-24T00:56:00.229Z,9.60
2022-10-24T00:58:30.537Z,9.67
2022-10-24T01:01:00.183Z,10.53
2022-10-24T01:03:31.271Z,9.37
2022-10-24T01:06:16.025Z,10.57
2022-10-24T01:08:48.181Z,9.27
2022-10-24T01:11:23.613Z,9.93
2022-10-24T01:13:57.873Z,9.27
2022-10-24T01:16:31.377Z,10.00
2022-10-24T01:19:08.932Z,9.90
2022-10-24T01:21:39.297Z,10.47
2022-10-24T01:24:27.108Z,9.43
2022-10-24T01:27:06.794Z,8.80
2022-10-24T01:29:57.477Z,9.10
2022-10-24T01:32:36.262Z,9.20
2022-10-24T01:35:08.383Z,9.37
2022-10-24T01:37:40.735Z,7.90
2022-10-24T01:40:13.225Z,9.37
2022-10-24T01:42:44.312Z,9.33
2022-10-24T01:45:15.905Z,9.03
2022-10-24T01:47:50.284Z,8.63
2022-10-24T01:50:20.250Z,8.80
2022-10-24T01:52:50.302Z,7.63
2022-10-24T01:55:19.622Z,8.03
2022-10-24T01:57:48.934Z,7.80
2022-10-24T02:00:20.520Z,8.50
2022-10-24T02:02:54.188Z,7.50
2022-10-24T02:05:25.145Z,7.07
2022-10-24T02:07:56.383Z,8.10
2022-10-24T02:10:28.510Z,7.40
2022-10-24T02:13:01.837Z,7.50
2022-10-24T02:15:33.890Z,8.53
2022-10-24T02:18:05.116Z,8.00
2022-10-24T02:20:36.495Z,7.87
2022-10-24T02:23:08.384Z,7.70
2022-10-24T02:25:38.964Z,7.40
2022-10-24T02:28:10.557Z,7.30
2022-10-24T02:30:42.258Z,8.53
2022-10-24T02:33:13.872Z,7.77
2022-10-24T02:35:44.024Z,8.47
2022-10-24T02:38:16.869Z,8.00
2022-10-24T02:40:46.920Z,7.53
2022-10-24T02:43:16.466Z,8.10
2022-10-24T02:45:51.718Z,7.93
2022-10-24T02:48:25.512Z,6.43
2022-10-24T02:50:55.003Z,7.20
2022-10-24T02:53:26.627Z,7.80
2022-10-24T02:55:55.828Z,7.50
2022-10-24T02:58:24.943Z,7.50
2022-10-24T03:00:54.318Z,7.20
2022-10-24T03:03:24.972Z,7.37
2022-10-24T03:05:54.520Z,6.13
2022-10-24T03:08:23.795Z,7.00
2022-10-24T03:10:53.039Z,5.30
2022-10-24T03:13:22.231Z,6.40
2022-10-24T03:15:51.505Z,6.60
2022-10-24T03:18:20.530Z,6.50
2022-10-24T03:20:51.021Z,6.00
2022-10-24T03:23:22.271Z,5.00
2022-10-24T03:25:51.773Z,5.63
2022-10-24T03:28:20.895Z,6.07
2022-10-24T03:30:50.240Z,5.20
2022-10-24T03:33:19.440Z,5.10
2022-10-24T03:35:48.526Z,4.57
2022-10-24T03:38:19.076Z,3.30
2022-10-24T03:40:48.495Z,3.73
2022-10-24T03:43:17.637Z,4.07
2022-10-24T03:45:47.588Z,3.50
2022-10-24T03:48:16.669Z,3.50
2022-10-24T03:50:45.798Z,4.20
2022-10-24T03:53:15.272Z,3.50
2022-10-24T03:55:45.958Z,2.90
2022-10-24T03:58:15.131Z,3.10
2022-10-24T04:00:44.359Z,2.97
2022-10-24T04:03:13.673Z,1.90
2022-10-24T04:05:42.782Z,2.80
2022-10-24T04:08:12.130Z,2.23
2022-10-24T04:10:41.402Z,1.90
2022-10-24T04:13:12.115Z,2.67
2022-10-24T04:15:41.401Z,2.40
2022-10-24T04:18:10.596Z,2.47
2022-10-24T04:20:39.963Z,2.20
2022-10-24T04:23:09.195Z,2.80
2022-10-24T04:25:38.391Z,2.30
2022-10-24T04:28:07.811Z,2.33
2022-10-24T04:30:38.546Z,2.47
2022-10-24T04:33:07.702Z,2.23
2022-10-24T04:35:36.865Z,2.10
2022-10-24T04:38:06.011Z,2.40
2022-10-24T04:40:35.215Z,2.27
2022-10-24T04:43:04.324Z,2.30
2022-10-24T04:45:33.516Z,2.70
2022-10-24T04:48:04.366Z,2.50
2022-10-24T04:50:33.763Z,2.30
2022-10-24T04:53:03.205Z,2.30
2022-10-24T04:55:32.829Z,2.50
2022-10-24T04:58:02.305Z,2.40
2022-10-24T05:00:31.659Z,3.67
2022-10-24T05:03:00.713Z,2.50
2022-10-24T05:05:31.456Z,2.30
2022-10-24T05:08:00.783Z,2.40
2022-10-24T05:10:29.979Z,2.77
2022-10-24T05:12:59.379Z,2.70
2022-10-24T05:15:30.275Z,3.00
2022-10-24T05:18:00.051Z,3.03
2022-10-24T05:20:29.628Z,3.40
2022-10-24T05:23:00.395Z,3.30
2022-10-24T05:25:29.771Z,4.30
2022-10-24T05:27:59.189Z,4.60
2022-10-24T05:30:28.333Z,6.10
2022-10-24T05:32:58.049Z,5.00
2022-10-24T05:35:27.299Z,6.60
2022-10-24T05:37:56.675Z,5.30
2022-10-24T05:40:27.339Z,4.87
2022-10-24T05:42:56.573Z,6.40
2022-10-24T05:45:25.672Z,6.00
2022-10-24T05:47:54.816Z,6.47
2022-10-24T05:50:24.051Z,6.37
2022-10-24T05:52:53.503Z,5.73
2022-10-24T05:55:22.695Z,6.20
2022-10-24T05:57:53.683Z,6.67
2022-10-24T06:00:23.162Z,6.60
2022-10-24T06:02:52.572Z,6.00
2022-10-24T06:05:22.367Z,4.70
2022-10-24T06:07:51.517Z,6.60
2022-10-24T06:10:20.808Z,5.60
2022-10-24T06:12:49.947Z,5.43
2022-10-24T06:15:21.255Z,15.07
2022-10-24T06:17:50.484Z,7.47
2022-10-24T06:20:20.112Z,5.20
2022-10-24T06:22:51.051Z,5.90
2022-10-24T06:25:20.701Z,5.73
2022-10-24T06:27:50.038Z,6.43
2022-10-24T06:30:21.090Z,5.20
2022-10-24T06:32:50.935Z,6.87
2022-10-24T06:35:20.813Z,7.03
2022-10-24T06:37:50.332Z,4.90
2022-10-24T06:40:20.676Z,4.67
2022-10-24T06:42:50.236Z,5.70
2022-10-24T06:45:22.277Z,5.60
2022-10-24T06:47:54.058Z,5.77
2022-10-24T06:50:24.080Z,6.07
2022-10-24T06:52:53.898Z,4.70
2022-10-24T06:55:23.513Z,6.60
2022-10-24T06:57:52.966Z,5.83
2022-10-24T07:00:23.575Z,5.90
2022-10-24T07:02:52.927Z,5.83
2022-10-24T07:05:22.605Z,6.50
2022-10-24T07:07:51.835Z,6.13
2022-10-24T07:10:21.069Z,5.70
2022-10-24T07:12:50.331Z,4.20
2022-10-24T07:15:19.647Z,3.37
2022-10-24T07:17:50.341Z,3.27
2022-10-24T07:20:19.729Z,4.80
2022-10-24T07:22:49.145Z,3.33
2022-10-24T07:25:18.638Z,4.20
2022-10-24T07:27:47.865Z,4.53
2022-10-24T07:30:18.365Z,4.40
2022-10-24T07:32:48.939Z,5.00
2022-10-24T07:35:19.685Z,3.73
2022-10-24T07:37:49.056Z,4.57
2022-10-24T07:40:18.484Z,2.90
2022-10-24T07:42:48.711Z,3.30
2022-10-24T07:45:17.993Z,2.40
2022-10-24T07:47:47.704Z,2.20
2022-10-24T07:50:17.621Z,2.40
2022-10-24T07:52:48.275Z,2.53
2022-10-24T07:55:17.810Z,2.83
2022-10-24T07:57:47.268Z,3.00
2022-10-24T08:00:17.984Z,2.07
2022-10-24T08:05:19.466Z,2.60
2022-10-24T08:07:56.205Z,2.60
2022-10-24T08:10:41.516Z,4.07
2022-10-24T08:13:13.474Z,3.90
2022-10-24T08:15:43.284Z,4.00
2022-10-24T08:18:12.585Z,4.87
2022-10-24T08:20:41.867Z,3.43
2022-10-24T08:23:12.545Z,4.63
2022-10-24T08:25:46.716Z,4.47
2022-10-24T08:28:16.171Z,4.10
2022-10-24T08:30:45.405Z,5.10
2022-10-24T08:33:18.736Z,7.93
2022-10-24T08:35:48.790Z,8.93
2022-10-24T08:38:19.774Z,6.73
2022-10-24T08:40:50.218Z,6.50
2022-10-24T08:43:20.414Z,6.17
2022-10-24T08:45:57.096Z,5.20
2022-10-24T08:48:29.893Z,6.67
2022-10-24T08:51:03.159Z,5.60
2022-10-24T08:53:34.874Z,7.37
2022-10-24T08:56:04.335Z,7.27
2022-10-24T08:58:36.552Z,5.33
2022-10-24T09:01:09.389Z,3.40
2022-10-24T09:03:57.923Z,3.00
2022-10-24T09:06:28.556Z,3.10
2022-10-24T09:09:04.000Z,2.67
2022-10-24T09:11:38.951Z,2.60
2022-10-24T09:14:13.607Z,2.53
2022-10-24T09:16:43.736Z,2.23
2022-10-24T09:19:15.244Z,3.43
2022-10-24T09:21:45.667Z,1.90
2022-10-24T09:24:22.972Z,2.30
2022-10-24T09:26:52.464Z,2.13
2022-10-24T09:29:21.647Z,2.00
2022-10-24T09:31:50.865Z,3.10
2022-10-24T09:34:20.036Z,2.50
2022-10-24T09:36:49.316Z,2.70
2022-10-24T09:39:28.246Z,2.60
2022-10-24T09:41:58.260Z,2.63
2022-10-24T09:44:33.096Z,2.40
2022-10-24T09:47:03.325Z,2.17
2022-10-24T09:49:35.638Z,2.57
2022-10-24T09:52:06.985Z,2.47
2022-10-24T09:54:38.947Z,2.60
2022-10-24T09:59:45.725Z,2.17
2022-10-24T10:02:25.838Z,3.07
2022-10-24T10:05:16.234Z,3.33
2022-10-24T10:07:48.775Z,2.67
2022-10-24T10:10:34.237Z,3.90
2022-10-24T10:13:24.695Z,2.77
2022-10-24T10:15:55.773Z,2.50
2022-10-24T10:18:29.825Z,2.30
2022-10-24T10:21:17.215Z,2.37
2022-10-24T10:23:47.491Z,2.37
2022-10-24T10:26:27.662Z,2.50
2022-10-24T10:29:03.147Z,2.10
2022-10-24T10:31:50.289Z,2.20
2022-10-24T10:34:24.297Z,2.30
2022-10-24T10:37:23.667Z,6.90
2022-10-24T10:40:14.407Z,1.93
2022-10-24T10:42:47.233Z,2.37
2022-10-24T10:45:23.727Z,2.30
2022-10-24T10:48:00.149Z,4.13
2022-10-24T10:50:35.075Z,2.83
2022-10-24T10:53:07.710Z,2.70
2022-10-24T10:55:40.932Z,2.90
2022-10-24T10:58:19.104Z,4.07
2022-10-24T11:00:56.331Z,3.37
2022-10-24T11:03:32.584Z,2.60
2022-10-24T11:06:08.032Z,3.13
2022-10-24T11:08:44.685Z,3.90
2022-10-24T11:11:16.855Z,2.93
2022-10-24T11:13:50.977Z,3.80
2022-10-24T11:16:23.554Z,3.30
2022-10-24T11:18:57.247Z,3.27
2022-10-24T11:21:27.921Z,3.37
2022-10-24T11:23:59.876Z,3.90
2022-10-24T11:26:30.709Z,3.67
2022-10-24T11:29:01.938Z,3.70
2022-10-24T11:31:34.720Z,4.87
2022-10-24T11:34:05.778Z,4.17
2022-10-24T11:36:39.032Z,4.50
2022-10-24T11:39:13.229Z,3.40
2022-10-24T11:41:55.430Z,7.40
2022-10-24T11:44:33.998Z,4.10
2022-10-24T11:47:11.156Z,4.97
2022-10-24T11:49:43.532Z,5.17
2022-10-24T11:52:16.873Z,5.00
2022-10-24T11:54:49.539Z,5.53
2022-10-24T11:57:22.597Z,4.80
2022-10-24T11:59:54.460Z,4.40
2022-10-24T12:02:39.643Z,4.87
2022-10-24T12:05:19.517Z,5.10
2022-10-24T12:08:02.755Z,4.67
2022-10-24T12:10:40.429Z,5.47
2022-10-24T12:13:28.764Z,6.83
2022-10-24T12:16:00.375Z,4.87
2022-10-24T12:18:33.343Z,5.23
2022-10-24T12:21:05.147Z,4.87
2022-10-24T12:23:35.004Z,5.20
2022-10-24T12:26:05.383Z,4.77
2022-10-24T12:28:34.934Z,5.07
2022-10-24T12:31:11.646Z,5.70
2022-10-24T12:33:42.743Z,5.20
2022-10-24T12:36:12.698Z,6.40
2022-10-24T12:39:09.259Z,5.13
2022-10-24T12:41:42.605Z,5.27
2022-10-24T12:44:25.707Z,5.53
2022-10-24T12:46:55.811Z,5.80
2022-10-24T12:49:30.392Z,5.80
2022-10-24T12:52:00.468Z,5.30
2022-10-24T12:54:42.968Z,5.10
2022-10-24T12:57:23.828Z,5.57
2022-10-24T12:59:55.051Z,6.00
2022-10-24T13:02:43.526Z,7.10
2022-10-24T13:05:19.866Z,5.70
2022-10-24T13:08:00.252Z,6.93
2022-10-24T13:10:50.408Z,6.50
2022-10-24T13:13:37.326Z,5.63
2022-10-24T13:16:09.956Z,7.60
2022-10-24T13:18:46.259Z,6.37
2022-10-24T13:21:20.012Z,6.10
2022-10-24T13:23:50.655Z,7.10
2022-10-24T13:26:44.255Z,6.30
2022-10-24T13:29:15.470Z,6.97
2022-10-24T13:31:46.808Z,8.70
2022-10-24T13:34:23.560Z,6.37
2022-10-24T13:37:00.214Z,6.00
2022-10-24T13:39:34.488Z,7.73
2022-10-24T13:42:09.965Z,7.20
2022-10-24T13:44:45.005Z,6.17
2022-10-24T13:47:18.119Z,6.20
2022-10-24T13:49:52.368Z,5.60
2022-10-24T13:52:25.476Z,5.80
2022-10-24T13:54:57.588Z,5.60
2022-10-24T13:57:33.936Z,6.50
2022-10-24T14:00:04.745Z,6.90
2022-10-24T14:02:42.771Z,7.10
2022-10-24T14:05:21.471Z,5.37
2022-10-24T14:07:52.984Z,6.90
2022-10-24T14:10:23.415Z,6.63
2022-10-24T14:12:57.299Z,6.77
2022-10-24T14:15:28.197Z,5.57
2022-10-24T14:18:00.113Z,5.70
2022-10-24T14:20:30.701Z,5.93
2022-10-24T14:23:01.696Z,7.10
2022-10-24T14:25:33.412Z,6.13
2022-10-24T14:28:04.148Z,5.50
2022-10-24T14:30:35.073Z,5.53
2022-10-24T14:33:09.156Z,6.00
2022-10-24T14:35:39.349Z,6.10
2022-10-24T14:38:10.931Z,6.30
2022-10-24T14:40:40.752Z,6.50
2022-10-24T14:43:12.524Z,7.70
2022-10-24T14:45:42.651Z,6.83
2022-10-24T14:48:18.320Z,5.97
2022-10-24T14:50:48.287Z,5.90
2022-10-24T14:53:25.175Z,5.63
2022-10-24T14:55:56.013Z,5.97
2022-10-24T14:58:26.544Z,5.60
2022-10-24T15:00:57.376Z,5.30
2022-10-24T15:03:27.706Z,5.53
2022-10-24T15:05:58.618Z,6.30
2022-10-24T15:08:36.413Z,6.13
2022-10-24T15:11:17.298Z,6.07
2022-10-24T15:13:55.205Z,6.00
2022-10-24T15:16:37.805Z,5.70
2022-10-24T15:19:09.433Z,7.50
2022-10-24T15:21:40.941Z,6.43
2022-10-24T15:24:22.003Z,6.23
2022-10-24T15:26:51.972Z,3.97
2022-10-24T15:29:23.065Z,3.10
2022-10-24T15:31:53.785Z,4.57
2022-10-24T15:34:25.134Z,2.30
2022-10-24T15:36:57.191Z,3.20
2022-10-24T15:39:29.042Z,2.13
2022-10-24T15:42:00.225Z,1.93
2022-10-24T15:44:30.629Z,2.30
2022-10-24T15:47:00.420Z,1.80
2022-10-24T15:49:31.772Z,2.00
2022-10-24T15:52:01.912Z,2.10
2022-10-24T15:54:34.011Z,2.60
2022-10-24T15:57:05.279Z,1.30
2022-10-24T15:59:36.102Z,1.70
2022-10-24T16:02:06.749Z,1.80
2022-10-24T16:04:40.667Z,2.23
2022-10-24T16:07:12.486Z,1.80
2022-10-24T16:09:44.729Z,1.70
2022-10-24T16:12:15.496Z,2.10
2022-10-24T16:14:45.869Z,2.20
2022-10-24T16:17:15.698Z,3.70
2022-10-24T16:19:46.448Z,1.87
2022-10-24T16:22:17.340Z,1.70
2022-10-24T16:24:50.042Z,2.27
2022-10-24T16:27:20.478Z,2.13
2022-10-24T16:29:50.667Z,1.90
2022-10-24T16:32:20.781Z,2.17
2022-10-24T16:34:50.931Z,2.30
2022-10-24T16:37:21.956Z,2.00
2022-10-24T16:39:53.969Z,2.20
2022-10-24T16:42:24.454Z,2.10
2022-10-24T16:44:54.803Z,2.17
2022-10-24T16:47:26.714Z,1.97
2022-10-24T16:49:58.119Z,2.53
2022-10-24T16:52:28.819Z,2.93
2022-10-24T16:55:01.385Z,1.60
2022-10-24T16:57:31.216Z,2.20
2022-10-24T17:00:01.051Z,1.90
2022-10-24T17:02:33.226Z,2.43
2022-10-24T17:05:03.108Z,2.77
2022-10-24T17:07:33.059Z,1.67
2022-10-24T17:10:05.763Z,2.27
2022-10-24T17:12:36.023Z,2.70
2022-10-24T17:15:10.269Z,3.47
2022-10-24T17:17:40.248Z,2.67
2022-10-24T17:20:12.487Z,7.67
2022-10-24T17:22:44.578Z,5.13
2022-10-24T17:25:29.668Z,4.17
2022-10-24T17:28:00.711Z,3.47
2022-10-24T17:30:31.215Z,4.30
2022-10-24T17:33:01.728Z,3.73
2022-10-24T17:35:32.867Z,5.27
2022-10-24T17:38:07.709Z,4.87
2022-10-24T17:40:42.934Z,4.83
2022-10-24T17:43:19.812Z,4.30
2022-10-24T17:45:51.979Z,4.90
2022-10-24T17:48:23.383Z,3.13
2022-10-24T17:50:56.515Z,2.97
2022-10-24T17:53:26.550Z,7.37
2022-10-24T17:55:57.261Z,5.40
2022-10-24T17:58:29.295Z,4.50
2022-10-24T18:01:00.813Z,5.77
2022-10-24T18:03:31.512Z,6.40
2022-10-24T18:06:02.320Z,4.03
2022-10-24T18:08:32.806Z,6.50
2022-10-24T18:11:05.787Z,3.20
2022-10-24T18:13:38.676Z,4.00
2022-10-24T18:16:09.490Z,4.50
2022-10-24T18:18:40.305Z,7.80
2022-10-24T18:21:12.233Z,5.00
2022-10-24T18:23:44.175Z,5.00
2022-10-24T18:26:16.317Z,5.63
2022-10-24T18:28:49.528Z,4.70
2022-10-24T18:31:20.142Z,8.07
2022-10-24T18:33:50.306Z,4.50
2022-10-24T18:36:21.317Z,6.20
2022-10-24T18:38:51.936Z,6.27
2022-10-24T18:41:28.064Z,7.33
2022-10-24T18:44:01.830Z,7.40
2022-10-24T18:46:35.567Z,6.40
2022-10-24T18:49:05.412Z,6.53
2022-10-24T18:51:37.172Z,8.20
2022-10-24T18:54:08.466Z,5.03
2022-10-24T18:56:40.300Z,19.40
2022-10-24T18:59:19.377Z,3.77
2022-10-24T19:01:53.050Z,10.57
2022-10-24T19:04:25.499Z,3.70
2022-10-24T19:06:56.701Z,4.30
2022-10-24T19:09:28.926Z,9.90
2022-10-24T19:11:58.930Z,6.07
2022-10-24T19:14:33.188Z,4.90
2022-10-24T19:17:05.184Z,12.70
2022-10-24T19:19:36.020Z,9.40
2022-10-24T19:22:06.516Z,5.60
2022-10-24T19:24:36.458Z,5.10
2022-10-24T19:27:07.263Z,6.77
2022-10-24T19:29:38.426Z,7.67
2022-10-24T19:32:09.255Z,6.00
2022-10-24T19:34:41.740Z,5.30
2022-10-24T19:37:12.251Z,4.50
2022-10-24T19:39:43.104Z,5.43
2022-10-24T19:42:13.919Z,5.17
2022-10-24T19:47:23.286Z,5.70
2022-10-24T19:49:54.996Z,6.90
2022-10-24T19:52:26.883Z,5.37
2022-10-24T19:54:56.900Z,9.87
2022-10-24T19:57:27.492Z,6.87
2022-10-24T19:59:58.604Z,6.23
2022-10-24T20:02:28.919Z,9.57
2022-10-24T20:05:07.405Z,7.60
2022-10-24T20:07:37.993Z,5.07
2022-10-24T20:10:12.155Z,4.90
2022-10-24T20:12:45.643Z,7.87
2022-10-24T20:15:19.364Z,5.50
2022-10-24T20:17:53.373Z,10.00
2022-10-24T20:23:20.641Z,5.27
2022-10-24T20:28:53.605Z,5.97
2022-10-24T20:31:27.614Z,6.87
2022-10-24T20:34:05.177Z,5.50
2022-10-24T20:36:38.758Z,7.83
2022-10-24T20:39:09.430Z,5.00
2022-10-24T20:41:39.753Z,6.60
2022-10-24T20:44:11.746Z,8.10
2022-10-24T20:46:43.863Z,6.57
2022-10-24T20:49:17.227Z,6.50
2022-10-24T20:51:47.195Z,9.20
2022-10-24T20:54:18.026Z,7.90
2022-10-24T20:56:48.025Z,7.63
2022-10-24T20:59:18.167Z,7.60
2022-10-24T21:01:53.670Z,6.50
2022-10-24T21:04:23.668Z,6.87
2022-10-24T21:06:54.476Z,6.20
2022-10-24T21:09:24.281Z,7.10
2022-10-24T21:11:54.189Z,6.57
2022-10-24T21:14:24.727Z,4.97
2022-10-24T21:16:56.757Z,5.20
2022-10-24T21:19:28.425Z,5.00
2022-10-24T21:22:00.603Z,4.60
2022-10-24T21:24:30.697Z,5.37
2022-10-24T21:27:01.331Z,3.97
2022-10-24T21:29:33.592Z,4.57
2022-10-24T21:32:06.394Z,3.57
2022-10-24T21:34:37.075Z,3.90
2022-10-24T21:37:07.614Z,4.30
2022-10-24T21:39:39.916Z,5.30
2022-10-24T21:42:10.538Z,4.37
2022-10-24T21:44:40.674Z,4.50
2022-10-24T21:47:12.887Z,4.00
2022-10-24T21:49:44.168Z,3.60
2022-10-24T21:52:14.117Z,3.70
2022-10-24T21:54:44.128Z,2.87
2022-10-24T21:57:14.219Z,3.20
2022-10-24T21:59:44.073Z,3.07
2022-10-24T22:02:21.908Z,4.10
2022-10-24T22:04:52.288Z,3.40
2022-10-24T22:07:22.720Z,3.60
2022-10-24T22:09:53.154Z,3.77
2022-10-24T22:12:22.566Z,3.63
2022-10-24T22:14:52.299Z,3.40
2022-10-24T22:17:24.187Z,4.07
2022-10-24T22:19:54.719Z,3.93
2022-10-24T22:22:24.962Z,3.60
2022-10-24T22:24:54.919Z,3.97
2022-10-24T22:27:24.285Z,4.17
2022-10-24T22:29:53.770Z,4.10
2022-10-24T22:34:56.874Z,4.50
2022-10-24T22:37:27.243Z,3.57
2022-10-24T22:39:56.818Z,4.00
2022-10-24T22:42:26.519Z,3.70
2022-10-24T22:44:56.656Z,4.47
2022-10-24T22:47:46.822Z,3.47
2022-10-24T22:50:33.810Z,3.80
2022-10-24T22:53:05.081Z,4.23
2022-10-24T22:55:35.288Z,4.60
2022-10-24T22:58:04.682Z,3.87
2022-10-24T23:00:34.124Z,4.80
2022-10-24T23:03:06.739Z,5.00
2022-10-24T23:05:40.392Z,4.60
2022-10-24T23:08:14.482Z,4.73
2022-10-24T23:10:44.052Z,4.30
2022-10-24T23:13:13.539Z,4.60
2022-10-24T23:15:42.847Z,5.40
2022-10-24T23:18:12.404Z,4.60
2022-10-24T23:20:42.590Z,4.60
2022-10-24T23:23:28.825Z,4.60
2022-10-24T23:26:04.283Z,4.90
2022-10-24T23:28:38.806Z,4.63
2022-10-24T23:31:08.330Z,5.20
2022-10-24T23:33:37.781Z,4.77
2022-10-24T23:36:07.606Z,4.90
2022-10-24T23:38:38.627Z,4.93
2022-10-24T23:41:11.307Z,4.93
2022-10-24T23:43:41.139Z,5.20
2022-10-24T23:46:18.354Z,5.30
2022-10-24T23:48:54.069Z,4.80
2022-10-24T23:51:26.034Z,4.00
2022-10-24T23:53:57.747Z,4.00
2022-10-24T23:56:27.942Z,4.80
2022-10-24T23:58:57.612Z,4.37
